sensor_id;sensor_type;location;lat;lon;timestamp;P1;durP1;ratioP1;P2;durP2;ratioP2
10005;SDS011;5042;42.626;23.382;2022-08-19T00:01:46;3.80;;;3.50;;
10005;SDS011;5042;42.626;23.382;2022-08-19T00:04:16;3.83;;;3.50;;
10005;SDS011;5042;42.626;23.382;2022-08-19T00:06:44;3.40;;;3.10;;
10005;SDS011;5042;42.626;23.382;2022-08-19T00:09:13;4.22;;;3.50;;
10005;SDS011;5042;42.626;23.382;2022-08-19T00:11:42;3.88;;;3.47;;
10005;SDS011;5042;42.626;23.382;2022-08-19T00:14:13;3.70;;;3.33;;
10005;SDS011;5042;42.626;23.382;2022-08-19T00:16:43;4.68;;;3.95;;
10005;SDS011;5042;42.626;23.382;2022-08-19T00:19:11;3.58;;;3.13;;
10005;SDS011;5042;42.626;23.382;2022-08-19T00:21:38;4.10;;;3.55;;
10005;SDS011;5042;42.626;23.382;2022-08-19T00:24:06;3.90;;;3.53;;
10005;SDS011;5042;42.626;23.382;2022-08-19T00:26:33;3.83;;;3.42;;
10005;SDS011;5042;42.626;23.382;2022-08-19T00:29:00;4.22;;;3.72;;
10005;SDS011;5042;42.626;23.382;2022-08-19T00:31:28;3.67;;;3.38;;
10005;SDS011;5042;42.626;23.382;2022-08-19T00:33:56;4.28;;;3.92;;
10005;SDS011;5042;42.626;23.382;2022-08-19T00:36:23;4.45;;;3.30;;
10005;SDS011;5042;42.626;23.382;2022-08-19T00:38:49;4.03;;;3.30;;
10005;SDS011;5042;42.626;23.382;2022-08-19T00:41:18;4.82;;;3.75;;
10005;SDS011;5042;42.626;23.382;2022-08-19T00:43:56;4.32;;;3.92;;
10005;SDS011;5042;42.626;23.382;2022-08-19T00:46:25;4.05;;;3.65;;
10005;SDS011;5042;42.626;23.382;2022-08-19T00:48:53;3.72;;;3.42;;
10005;SDS011;5042;42.626;23.382;2022-08-19T00:51:20;3.60;;;3.22;;
10005;SDS011;5042;42.626;23.382;2022-08-19T00:53:51;3.63;;;3.33;;
10005;SDS011;5042;42.626;23.382;2022-08-19T00:56:19;3.67;;;3.38;;
10005;SDS011;5042;42.626;23.382;2022-08-19T00:58:46;4.10;;;3.60;;
10005;SDS011;5042;42.626;23.382;2022-08-19T01:01:13;3.83;;;3.50;;
10005;SDS011;5042;42.626;23.382;2022-08-19T01:03:40;4.03;;;3.50;;
10005;SDS011;5042;42.626;23.382;2022-08-19T01:06:08;4.28;;;3.90;;
10005;SDS011;5042;42.626;23.382;2022-08-19T01:08:35;5.57;;;3.83;;
10005;SDS011;5042;42.626;23.382;2022-08-19T01:11:02;3.75;;;3.45;;
10005;SDS011;5042;42.626;23.382;2022-08-19T01:13:30;4.28;;;3.45;;
10005;SDS011;5042;42.626;23.382;2022-08-19T01:16:02;3.90;;;3.35;;
10005;SDS011;5042;42.626;23.382;2022-08-19T01:18:32;4.22;;;3.83;;
10005;SDS011;5042;42.626;23.382;2022-08-19T01:21:05;6.88;;;4.00;;
10005;SDS011;5042;42.626;23.382;2022-08-19T01:23:39;3.85;;;3.45;;
10005;SDS011;5042;42.626;23.382;2022-08-19T01:26:10;4.30;;;3.78;;
10005;SDS011;5042;42.626;23.382;2022-08-19T01:28:39;4.05;;;3.65;;
10005;SDS011;5042;42.626;23.382;2022-08-19T01:31:08;4.38;;;3.97;;
10005;SDS011;5042;42.626;23.382;2022-08-19T01:33:40;4.07;;;3.70;;
10005;SDS011;5042;42.626;23.382;2022-08-19T01:36:07;4.30;;;3.90;;
10005;SDS011;5042;42.626;23.382;2022-08-19T01:38:37;4.60;;;4.15;;
10005;SDS011;5042;42.626;23.382;2022-08-19T01:41:06;4.78;;;4.10;;
10005;SDS011;5042;42.626;23.382;2022-08-19T01:43:33;3.90;;;3.58;;
10005;SDS011;5042;42.626;23.382;2022-08-19T01:46:00;4.25;;;3.85;;
10005;SDS011;5042;42.626;23.382;2022-08-19T01:48:32;4.03;;;3.67;;
10005;SDS011;5042;42.626;23.382;2022-08-19T01:51:00;4.85;;;4.30;;
10005;SDS011;5042;42.626;23.382;2022-08-19T01:53:27;4.22;;;3.83;;
10005;SDS011;5042;42.626;23.382;2022-08-19T01:55:55;4.65;;;3.95;;
10005;SDS011;5042;42.626;23.382;2022-08-19T01:58:25;4.75;;;4.28;;
10005;SDS011;5042;42.626;23.382;2022-08-19T02:00:55;4.30;;;3.90;;
10005;SDS011;5042;42.626;23.382;2022-08-19T02:03:22;3.80;;;3.42;;
10005;SDS011;5042;42.626;23.382;2022-08-19T02:05:53;5.95;;;3.95;;
10005;SDS011;5042;42.626;23.382;2022-08-19T02:08:21;4.47;;;4.05;;
10005;SDS011;5042;42.626;23.382;2022-08-19T02:10:48;3.70;;;3.40;;
10005;SDS011;5042;42.626;23.382;2022-08-19T02:13:15;4.85;;;3.95;;
10005;SDS011;5042;42.626;23.382;2022-08-19T02:15:43;4.28;;;3.88;;
10005;SDS011;5042;42.626;23.382;2022-08-19T02:18:10;5.70;;;3.72;;
10005;SDS011;5042;42.626;23.382;2022-08-19T02:20:38;4.55;;;4.15;;
10005;SDS011;5042;42.626;23.382;2022-08-19T02:23:06;5.43;;;4.40;;
10005;SDS011;5042;42.626;23.382;2022-08-19T02:25:34;4.25;;;3.85;;
10005;SDS011;5042;42.626;23.382;2022-08-19T02:28:00;4.35;;;3.95;;
10005;SDS011;5042;42.626;23.382;2022-08-19T02:30:28;4.25;;;3.85;;
10005;SDS011;5042;42.626;23.382;2022-08-19T02:32:56;4.20;;;3.80;;
10005;SDS011;5042;42.626;23.382;2022-08-19T02:35:23;3.88;;;3.47;;
10005;SDS011;5042;42.626;23.382;2022-08-19T02:37:50;5.00;;;4.60;;
10005;SDS011;5042;42.626;23.382;2022-08-19T02:40:34;3.95;;;3.47;;
10005;SDS011;5042;42.626;23.382;2022-08-19T02:43:03;4.28;;;3.88;;
10005;SDS011;5042;42.626;23.382;2022-08-19T02:45:32;4.00;;;3.60;;
10005;SDS011;5042;42.626;23.382;2022-08-19T02:48:01;4.13;;;3.72;;
10005;SDS011;5042;42.626;23.382;2022-08-19T02:50:29;4.75;;;4.22;;
10005;SDS011;5042;42.626;23.382;2022-08-19T02:52:56;4.40;;;4.00;;
10005;SDS011;5042;42.626;23.382;2022-08-19T02:55:22;4.13;;;3.67;;
10005;SDS011;5042;42.626;23.382;2022-08-19T02:57:49;5.32;;;4.18;;
10005;SDS011;5042;42.626;23.382;2022-08-19T03:00:16;3.88;;;3.40;;
10005;SDS011;5042;42.626;23.382;2022-08-19T03:02:43;4.55;;;3.78;;
10005;SDS011;5042;42.626;23.382;2022-08-19T03:05:13;4.57;;;4.18;;
10005;SDS011;5042;42.626;23.382;2022-08-19T03:07:39;4.53;;;4.13;;
10005;SDS011;5042;42.626;23.382;2022-08-19T03:10:06;4.22;;;3.92;;
10005;SDS011;5042;42.626;23.382;2022-08-19T03:12:35;4.13;;;3.83;;
10005;SDS011;5042;42.626;23.382;2022-08-19T03:15:03;4.47;;;4.07;;
10005;SDS011;5042;42.626;23.382;2022-08-19T03:17:32;4.18;;;3.78;;
10005;SDS011;5042;42.626;23.382;2022-08-19T03:19:59;4.82;;;4.43;;
10005;SDS011;5042;42.626;23.382;2022-08-19T03:22:28;4.38;;;3.97;;
10005;SDS011;5042;42.626;23.382;2022-08-19T03:24:55;4.25;;;3.85;;
10005;SDS011;5042;42.626;23.382;2022-08-19T03:27:21;4.78;;;4.30;;
10005;SDS011;5042;42.626;23.382;2022-08-19T03:29:48;4.85;;;3.85;;
10005;SDS011;5042;42.626;23.382;2022-08-19T03:32:15;4.38;;;3.97;;
10005;SDS011;5042;42.626;23.382;2022-08-19T03:34:42;4.43;;;4.03;;
10005;SDS011;5042;42.626;23.382;2022-08-19T03:37:10;4.40;;;3.85;;
10005;SDS011;5042;42.626;23.382;2022-08-19T03:39:40;4.93;;;3.55;;
10005;SDS011;5042;42.626;23.382;2022-08-19T03:42:07;4.80;;;4.30;;
10005;SDS011;5042;42.626;23.382;2022-08-19T03:44:35;5.43;;;3.92;;
10005;SDS011;5042;42.626;23.382;2022-08-19T03:47:02;4.50;;;4.10;;
10005;SDS011;5042;42.626;23.382;2022-08-19T03:49:31;4.05;;;3.72;;
10005;SDS011;5042;42.626;23.382;2022-08-19T03:52:00;4.20;;;3.80;;
10005;SDS011;5042;42.626;23.382;2022-08-19T03:54:27;4.53;;;4.05;;
10005;SDS011;5042;42.626;23.382;2022-08-19T03:56:55;4.55;;;4.15;;
10005;SDS011;5042;42.626;23.382;2022-08-19T03:59:24;6.80;;;4.28;;
10005;SDS011;5042;42.626;23.382;2022-08-19T04:01:52;4.18;;;3.78;;
10005;SDS011;5042;42.626;23.382;2022-08-19T04:04:20;4.55;;;4.15;;
10005;SDS011;5042;42.626;23.382;2022-08-19T04:06:47;4.75;;;4.03;;
10005;SDS011;5042;42.626;23.382;2022-08-19T04:09:14;4.30;;;3.90;;
10005;SDS011;5042;42.626;23.382;2022-08-19T04:11:42;4.65;;;4.25;;
10005;SDS011;5042;42.626;23.382;2022-08-19T04:14:13;5.10;;;3.72;;
10005;SDS011;5042;42.626;23.382;2022-08-19T04:16:42;5.53;;;3.83;;
10005;SDS011;5042;42.626;23.382;2022-08-19T04:19:10;4.57;;;4.10;;
10005;SDS011;5042;42.626;23.382;2022-08-19T04:21:38;4.45;;;3.88;;
10005;SDS011;5042;42.626;23.382;2022-08-19T04:24:05;5.85;;;4.30;;
10005;SDS011;5042;42.626;23.382;2022-08-19T04:26:34;4.22;;;3.75;;
10005;SDS011;5042;42.626;23.382;2022-08-19T04:29:04;4.65;;;4.15;;
10005;SDS011;5042;42.626;23.382;2022-08-19T04:31:33;4.78;;;4.28;;
10005;SDS011;5042;42.626;23.382;2022-08-19T04:34:01;7.78;;;4.32;;
10005;SDS011;5042;42.626;23.382;2022-08-19T04:36:30;4.78;;;4.05;;
10005;SDS011;5042;42.626;23.382;2022-08-19T04:39:03;4.50;;;4.10;;
10005;SDS011;5042;42.626;23.382;2022-08-19T04:41:32;4.30;;;3.90;;
10005;SDS011;5042;42.626;23.382;2022-08-19T04:44:16;4.78;;;4.38;;
10005;SDS011;5042;42.626;23.382;2022-08-19T04:46:45;5.97;;;4.18;;
10005;SDS011;5042;42.626;23.382;2022-08-19T04:49:13;5.28;;;4.20;;
10005;SDS011;5042;42.626;23.382;2022-08-19T04:51:42;4.25;;;3.85;;
10005;SDS011;5042;42.626;23.382;2022-08-19T04:54:10;4.68;;;4.20;;
10005;SDS011;5042;42.626;23.382;2022-08-19T04:56:39;4.00;;;3.60;;
10005;SDS011;5042;42.626;23.382;2022-08-19T04:59:07;4.50;;;3.92;;
10005;SDS011;5042;42.626;23.382;2022-08-19T05:01:34;6.50;;;4.43;;
10005;SDS011;5042;42.626;23.382;2022-08-19T05:04:03;5.38;;;4.50;;
10005;SDS011;5042;42.626;23.382;2022-08-19T05:06:32;4.05;;;3.70;;
10005;SDS011;5042;42.626;23.382;2022-08-19T05:08:59;4.38;;;3.95;;
10005;SDS011;5042;42.626;23.382;2022-08-19T05:11:28;4.45;;;4.05;;
10005;SDS011;5042;42.626;23.382;2022-08-19T05:13:56;5.30;;;3.78;;
10005;SDS011;5042;42.626;23.382;2022-08-19T05:16:24;4.93;;;4.20;;
10005;SDS011;5042;42.626;23.382;2022-08-19T05:18:52;4.47;;;4.07;;
10005;SDS011;5042;42.626;23.382;2022-08-19T05:21:38;4.43;;;3.47;;
10005;SDS011;5042;42.626;23.382;2022-08-19T05:24:23;4.97;;;4.00;;
10005;SDS011;5042;42.626;23.382;2022-08-19T05:26:51;4.70;;;3.85;;
10005;SDS011;5042;42.626;23.382;2022-08-19T05:29:21;5.18;;;3.85;;
10005;SDS011;5042;42.626;23.382;2022-08-19T05:31:50;4.65;;;3.75;;
10005;SDS011;5042;42.626;23.382;2022-08-19T05:34:18;4.30;;;3.90;;
10005;SDS011;5042;42.626;23.382;2022-08-19T05:36:49;4.30;;;3.90;;
10005;SDS011;5042;42.626;23.382;2022-08-19T05:39:17;3.90;;;3.55;;
10005;SDS011;5042;42.626;23.382;2022-08-19T05:41:46;4.03;;;3.60;;
10005;SDS011;5042;42.626;23.382;2022-08-19T05:44:15;7.10;;;3.63;;
10005;SDS011;5042;42.626;23.382;2022-08-19T05:46:43;3.58;;;3.28;;
10005;SDS011;5042;42.626;23.382;2022-08-19T05:49:12;4.10;;;3.78;;
10005;SDS011;5042;42.626;23.382;2022-08-19T05:51:40;5.22;;;3.60;;
10005;SDS011;5042;42.626;23.382;2022-08-19T05:54:08;5.07;;;3.58;;
10005;SDS011;5042;42.626;23.382;2022-08-19T05:56:36;3.60;;;3.30;;
10005;SDS011;5042;42.626;23.382;2022-08-19T05:59:03;4.32;;;3.92;;
10005;SDS011;5042;42.626;23.382;2022-08-19T06:01:36;3.92;;;3.63;;
10005;SDS011;5042;42.626;23.382;2022-08-19T06:04:04;3.40;;;3.13;;
10005;SDS011;5042;42.626;23.382;2022-08-19T06:06:31;3.95;;;3.45;;
10005;SDS011;5042;42.626;23.382;2022-08-19T06:08:59;4.00;;;3.60;;
10005;SDS011;5042;42.626;23.382;2022-08-19T06:11:33;4.60;;;3.00;;
10005;SDS011;5042;42.626;23.382;2022-08-19T06:14:03;4.18;;;3.80;;
10005;SDS011;5042;42.626;23.382;2022-08-19T06:16:33;4.25;;;3.10;;
10005;SDS011;5042;42.626;23.382;2022-08-19T06:19:00;6.47;;;3.70;;
10005;SDS011;5042;42.626;23.382;2022-08-19T06:21:29;3.47;;;3.17;;
10005;SDS011;5042;42.626;23.382;2022-08-19T06:23:56;4.00;;;3.70;;
10005;SDS011;5042;42.626;23.382;2022-08-19T06:26:24;3.38;;;3.17;;
10005;SDS011;5042;42.626;23.382;2022-08-19T06:28:53;3.30;;;3.08;;
10005;SDS011;5042;42.626;23.382;2022-08-19T06:31:20;3.60;;;3.33;;
10005;SDS011;5042;42.626;23.382;2022-08-19T06:33:49;3.55;;;3.25;;
10005;SDS011;5042;42.626;23.382;2022-08-19T06:36:17;4.68;;;3.05;;
10005;SDS011;5042;42.626;23.382;2022-08-19T06:38:44;2.85;;;2.65;;
10005;SDS011;5042;42.626;23.382;2022-08-19T06:41:11;3.67;;;3.30;;
10005;SDS011;5042;42.626;23.382;2022-08-19T06:43:38;3.53;;;3.22;;
10005;SDS011;5042;42.626;23.382;2022-08-19T06:46:10;4.35;;;3.58;;
10005;SDS011;5042;42.626;23.382;2022-08-19T06:48:39;4.20;;;3.40;;
10005;SDS011;5042;42.626;23.382;2022-08-19T06:51:06;4.10;;;3.72;;
10005;SDS011;5042;42.626;23.382;2022-08-19T06:53:32;4.72;;;3.97;;
10005;SDS011;5042;42.626;23.382;2022-08-19T06:56:00;3.60;;;3.30;;
10005;SDS011;5042;42.626;23.382;2022-08-19T06:58:28;3.50;;;3.03;;
10005;SDS011;5042;42.626;23.382;2022-08-19T07:00:57;3.58;;;3.10;;
10005;SDS011;5042;42.626;23.382;2022-08-19T07:03:28;3.70;;;3.40;;
10005;SDS011;5042;42.626;23.382;2022-08-19T07:05:57;4.57;;;3.88;;
10005;SDS011;5042;42.626;23.382;2022-08-19T07:08:24;4.63;;;3.58;;
10005;SDS011;5042;42.626;23.382;2022-08-19T07:10:52;2.92;;;2.72;;
10005;SDS011;5042;42.626;23.382;2022-08-19T07:13:19;3.15;;;2.95;;
10005;SDS011;5042;42.626;23.382;2022-08-19T07:15:48;5.50;;;3.28;;
10005;SDS011;5042;42.626;23.382;2022-08-19T07:18:16;3.28;;;2.97;;
10005;SDS011;5042;42.626;23.382;2022-08-19T07:20:45;4.68;;;3.15;;
10005;SDS011;5042;42.626;23.382;2022-08-19T07:23:12;3.78;;;3.47;;
10005;SDS011;5042;42.626;23.382;2022-08-19T07:25:40;3.97;;;3.40;;
10005;SDS011;5042;42.626;23.382;2022-08-19T07:28:08;3.15;;;2.95;;
10005;SDS011;5042;42.626;23.382;2022-08-19T07:30:36;3.75;;;3.40;;
10005;SDS011;5042;42.626;23.382;2022-08-19T07:33:03;3.17;;;2.97;;
10005;SDS011;5042;42.626;23.382;2022-08-19T07:35:31;4.10;;;3.00;;
10005;SDS011;5042;42.626;23.382;2022-08-19T07:38:00;3.40;;;3.20;;
10005;SDS011;5042;42.626;23.382;2022-08-19T07:40:29;3.20;;;2.90;;
10005;SDS011;5042;42.626;23.382;2022-08-19T07:42:56;3.35;;;2.85;;
10005;SDS011;5042;42.626;23.382;2022-08-19T07:45:23;3.50;;;3.20;;
10005;SDS011;5042;42.626;23.382;2022-08-19T07:47:50;3.50;;;3.20;;
10005;SDS011;5042;42.626;23.382;2022-08-19T07:50:18;4.25;;;2.83;;
10005;SDS011;5042;42.626;23.382;2022-08-19T07:52:46;3.10;;;2.90;;
10005;SDS011;5042;42.626;23.382;2022-08-19T07:55:17;3.50;;;3.20;;
10005;SDS011;5042;42.626;23.382;2022-08-19T07:57:45;4.05;;;3.25;;
10005;SDS011;5042;42.626;23.382;2022-08-19T08:00:13;3.72;;;3.42;;
10005;SDS011;5042;42.626;23.382;2022-08-19T08:02:40;5.20;;;2.97;;
10005;SDS011;5042;42.626;23.382;2022-08-19T08:05:08;4.43;;;2.67;;
10005;SDS011;5042;42.626;23.382;2022-08-19T08:07:53;3.30;;;3.10;;
10005;SDS011;5042;42.626;23.382;2022-08-19T08:10:50;3.88;;;3.08;;
10005;SDS011;5042;42.626;23.382;2022-08-19T08:13:17;3.00;;;2.80;;
10005;SDS011;5042;42.626;23.382;2022-08-19T08:15:44;3.92;;;3.53;;
10005;SDS011;5042;42.626;23.382;2022-08-19T08:18:11;3.50;;;2.95;;
10005;SDS011;5042;42.626;23.382;2022-08-19T08:20:38;3.97;;;3.00;;
10005;SDS011;5042;42.626;23.382;2022-08-19T08:23:05;3.95;;;3.63;;
10005;SDS011;5042;42.626;23.382;2022-08-19T08:25:52;6.03;;;3.95;;
10005;SDS011;5042;42.626;23.382;2022-08-19T08:28:21;3.60;;;3.30;;
10005;SDS011;5042;42.626;23.382;2022-08-19T08:30:48;3.80;;;3.25;;
10005;SDS011;5042;42.626;23.382;2022-08-19T08:33:17;4.65;;;4.05;;
10005;SDS011;5042;42.626;23.382;2022-08-19T08:35:46;3.60;;;3.30;;
10005;SDS011;5042;42.626;23.382;2022-08-19T08:38:13;3.00;;;2.80;;
10005;SDS011;5042;42.626;23.382;2022-08-19T08:40:43;3.75;;;3.40;;
10005;SDS011;5042;42.626;23.382;2022-08-19T08:43:20;3.75;;;3.17;;
10005;SDS011;5042;42.626;23.382;2022-08-19T08:45:53;2.83;;;2.63;;
10005;SDS011;5042;42.626;23.382;2022-08-19T08:48:29;3.40;;;3.10;;
10005;SDS011;5042;42.626;23.382;2022-08-19T08:51:02;2.40;;;2.20;;
10005;SDS011;5042;42.626;23.382;2022-08-19T08:53:31;2.53;;;2.33;;
10005;SDS011;5042;42.626;23.382;2022-08-19T08:56:02;2.40;;;2.30;;
10005;SDS011;5042;42.626;23.382;2022-08-19T08:58:36;2.60;;;2.40;;
10005;SDS011;5042;42.626;23.382;2022-08-19T09:01:12;4.00;;;2.30;;
10005;SDS011;5042;42.626;23.382;2022-08-19T09:03:41;2.80;;;2.60;;
10005;SDS011;5042;42.626;23.382;2022-08-19T09:06:12;2.33;;;2.13;;
10005;SDS011;5042;42.626;23.382;2022-08-19T09:08:48;2.65;;;2.45;;
10005;SDS011;5042;42.626;23.382;2022-08-19T09:11:19;2.60;;;2.40;;
10005;SDS011;5042;42.626;23.382;2022-08-19T09:14:05;3.53;;;2.40;;
10005;SDS011;5042;42.626;23.382;2022-08-19T09:16:42;2.60;;;2.40;;
10005;SDS011;5042;42.626;23.382;2022-08-19T09:19:09;2.42;;;2.22;;
10005;SDS011;5042;42.626;23.382;2022-08-19T09:21:36;2.00;;;1.90;;
10005;SDS011;5042;42.626;23.382;2022-08-19T09:24:04;3.30;;;2.10;;
10005;SDS011;5042;42.626;23.382;2022-08-19T09:26:31;2.17;;;2.00;;
10005;SDS011;5042;42.626;23.382;2022-08-19T09:28:59;2.05;;;1.80;;
10005;SDS011;5042;42.626;23.382;2022-08-19T09:31:28;2.08;;;1.98;;
10005;SDS011;5042;42.626;23.382;2022-08-19T09:33:57;2.55;;;1.90;;
10005;SDS011;5042;42.626;23.382;2022-08-19T09:36:26;2.40;;;2.25;;
10005;SDS011;5042;42.626;23.382;2022-08-19T09:38:57;1.77;;;1.67;;
10005;SDS011;5042;42.626;23.382;2022-08-19T09:41:25;1.90;;;1.80;;
10005;SDS011;5042;42.626;23.382;2022-08-19T09:43:53;2.08;;;1.98;;
10005;SDS011;5042;42.626;23.382;2022-08-19T09:46:22;2.22;;;2.13;;
10005;SDS011;5042;42.626;23.382;2022-08-19T09:48:52;2.33;;;2.13;;
10005;SDS011;5042;42.626;23.382;2022-08-19T09:51:20;2.42;;;2.22;;
10005;SDS011;5042;42.626;23.382;2022-08-19T09:53:49;2.75;;;1.92;;
10005;SDS011;5042;42.626;23.382;2022-08-19T09:56:18;1.92;;;1.83;;
10005;SDS011;5042;42.626;23.382;2022-08-19T09:58:46;2.72;;;2.30;;
10005;SDS011;5042;42.626;23.382;2022-08-19T10:01:17;2.38;;;2.20;;
10005;SDS011;5042;42.626;23.382;2022-08-19T10:03:46;2.33;;;2.13;;
10005;SDS011;5042;42.626;23.382;2022-08-19T10:06:15;2.40;;;2.20;;
10005;SDS011;5042;42.626;23.382;2022-08-19T10:08:42;2.35;;;2.15;;
10005;SDS011;5042;42.626;23.382;2022-08-19T10:11:09;2.25;;;2.15;;
10005;SDS011;5042;42.626;23.382;2022-08-19T10:13:36;2.92;;;2.40;;
10005;SDS011;5042;42.626;23.382;2022-08-19T10:16:04;2.35;;;2.15;;
10005;SDS011;5042;42.626;23.382;2022-08-19T10:18:34;2.20;;;2.10;;
10005;SDS011;5042;42.626;23.382;2022-08-19T10:21:03;2.53;;;2.33;;
10005;SDS011;5042;42.626;23.382;2022-08-19T10:23:35;3.17;;;2.65;;
10005;SDS011;5042;42.626;23.382;2022-08-19T10:26:03;2.78;;;2.58;;
10005;SDS011;5042;42.626;23.382;2022-08-19T10:28:31;2.28;;;2.08;;
10005;SDS011;5042;42.626;23.382;2022-08-19T10:30:58;2.40;;;2.22;;
10005;SDS011;5042;42.626;23.382;2022-08-19T10:33:29;2.30;;;2.08;;
10005;SDS011;5042;42.626;23.382;2022-08-19T10:35:58;3.10;;;2.50;;
10005;SDS011;5042;42.626;23.382;2022-08-19T10:38:25;2.38;;;2.17;;
10005;SDS011;5042;42.626;23.382;2022-08-19T10:40:55;3.53;;;2.38;;
10005;SDS011;5042;42.626;23.382;2022-08-19T10:43:22;2.22;;;2.03;;
10005;SDS011;5042;42.626;23.382;2022-08-19T10:45:51;2.25;;;2.15;;
10005;SDS011;5042;42.626;23.382;2022-08-19T10:48:21;2.65;;;2.13;;
10005;SDS011;5042;42.626;23.382;2022-08-19T10:50:47;3.72;;;2.17;;
10005;SDS011;5042;42.626;23.382;2022-08-19T10:53:32;2.47;;;2.28;;
10005;SDS011;5042;42.626;23.382;2022-08-19T10:56:00;2.55;;;2.05;;
10005;SDS011;5042;42.626;23.382;2022-08-19T10:58:59;4.90;;;2.10;;
10005;SDS011;5042;42.626;23.382;2022-08-19T11:01:26;2.50;;;2.30;;
10005;SDS011;5042;42.626;23.382;2022-08-19T11:03:54;2.30;;;2.10;;
10005;SDS011;5042;42.626;23.382;2022-08-19T11:06:22;2.63;;;2.40;;
10005;SDS011;5042;42.626;23.382;2022-08-19T11:08:50;2.92;;;2.67;;
10005;SDS011;5042;42.626;23.382;2022-08-19T11:11:18;2.15;;;2.05;;
10005;SDS011;5042;42.626;23.382;2022-08-19T11:13:46;2.72;;;2.50;;
10005;SDS011;5042;42.626;23.382;2022-08-19T11:16:15;2.53;;;2.33;;
10005;SDS011;5042;42.626;23.382;2022-08-19T11:18:46;2.45;;;2.08;;
10005;SDS011;5042;42.626;23.382;2022-08-19T11:21:15;4.05;;;2.95;;
10005;SDS011;5042;42.626;23.382;2022-08-19T11:23:45;2.50;;;2.30;;
10005;SDS011;5042;42.626;23.382;2022-08-19T11:26:13;2.50;;;2.30;;
10005;SDS011;5042;42.626;23.382;2022-08-19T11:28:42;3.00;;;2.80;;
10005;SDS011;5042;42.626;23.382;2022-08-19T11:31:10;2.60;;;2.40;;
10005;SDS011;5042;42.626;23.382;2022-08-19T11:33:37;2.67;;;2.50;;
10005;SDS011;5042;42.626;23.382;2022-08-19T11:36:05;2.40;;;2.20;;
10005;SDS011;5042;42.626;23.382;2022-08-19T11:38:32;2.63;;;2.42;;
10005;SDS011;5042;42.626;23.382;2022-08-19T11:41:01;2.65;;;2.45;;
10005;SDS011;5042;42.626;23.382;2022-08-19T11:43:29;3.45;;;2.20;;
10005;SDS011;5042;42.626;23.382;2022-08-19T11:45:58;2.88;;;2.67;;
10005;SDS011;5042;42.626;23.382;2022-08-19T11:48:25;2.20;;;2.10;;
10005;SDS011;5042;42.626;23.382;2022-08-19T11:50:52;2.47;;;2.30;;
10005;SDS011;5042;42.626;23.382;2022-08-19T11:53:21;2.78;;;2.58;;
10005;SDS011;5042;42.626;23.382;2022-08-19T11:55:48;2.75;;;2.28;;
10005;SDS011;5042;42.626;23.382;2022-08-19T11:58:16;3.45;;;2.83;;
10005;SDS011;5042;42.626;23.382;2022-08-19T12:00:43;2.50;;;2.30;;
10005;SDS011;5042;42.626;23.382;2022-08-19T12:03:12;4.47;;;2.50;;
10005;SDS011;5042;42.626;23.382;2022-08-19T12:05:40;3.72;;;3.35;;
10005;SDS011;5042;42.626;23.382;2022-08-19T12:08:07;2.42;;;2.28;;
10005;SDS011;5042;42.626;23.382;2022-08-19T12:10:34;3.17;;;2.47;;
10005;SDS011;5042;42.626;23.382;2022-08-19T12:13:02;2.65;;;2.45;;
10005;SDS011;5042;42.626;23.382;2022-08-19T12:15:29;2.65;;;2.45;;
10005;SDS011;5042;42.626;23.382;2022-08-19T12:17:56;2.95;;;2.65;;
10005;SDS011;5042;42.626;23.382;2022-08-19T12:20:24;3.10;;;2.80;;
10005;SDS011;5042;42.626;23.382;2022-08-19T12:22:51;3.22;;;2.92;;
10005;SDS011;5042;42.626;23.382;2022-08-19T12:25:18;2.97;;;2.65;;
10005;SDS011;5042;42.626;23.382;2022-08-19T12:27:45;2.60;;;2.40;;
10005;SDS011;5042;42.626;23.382;2022-08-19T12:30:13;2.97;;;2.78;;
10005;SDS011;5042;42.626;23.382;2022-08-19T12:32:40;3.95;;;2.88;;
10005;SDS011;5042;42.626;23.382;2022-08-19T12:35:07;3.90;;;3.33;;
10005;SDS011;5042;42.626;23.382;2022-08-19T12:37:38;2.60;;;2.40;;
10005;SDS011;5042;42.626;23.382;2022-08-19T12:40:10;2.67;;;2.47;;
10005;SDS011;5042;42.626;23.382;2022-08-19T12:42:38;2.42;;;2.22;;
10005;SDS011;5042;42.626;23.382;2022-08-19T12:45:07;4.15;;;2.50;;
10005;SDS011;5042;42.626;23.382;2022-08-19T12:47:35;3.55;;;2.45;;
10005;SDS011;5042;42.626;23.382;2022-08-19T12:50:02;3.67;;;2.58;;
10005;SDS011;5042;42.626;23.382;2022-08-19T12:52:34;3.05;;;2.85;;
10005;SDS011;5042;42.626;23.382;2022-08-19T12:55:05;3.85;;;3.55;;
10005;SDS011;5042;42.626;23.382;2022-08-19T12:57:33;3.63;;;2.92;;
10005;SDS011;5042;42.626;23.382;2022-08-19T13:00:03;3.38;;;3.00;;
10005;SDS011;5042;42.626;23.382;2022-08-19T13:02:34;3.25;;;2.60;;
10005;SDS011;5042;42.626;23.382;2022-08-19T13:05:01;2.80;;;2.60;;
10005;SDS011;5042;42.626;23.382;2022-08-19T13:07:28;3.50;;;2.78;;
10005;SDS011;5042;42.626;23.382;2022-08-19T13:09:55;3.30;;;3.00;;
10005;SDS011;5042;42.626;23.382;2022-08-19T13:12:23;3.20;;;2.90;;
10005;SDS011;5042;42.626;23.382;2022-08-19T13:14:51;5.30;;;4.18;;
10005;SDS011;5042;42.626;23.382;2022-08-19T13:17:19;6.90;;;5.47;;
10005;SDS011;5042;42.626;23.382;2022-08-19T13:19:47;3.38;;;3.08;;
10005;SDS011;5042;42.626;23.382;2022-08-19T13:22:14;5.45;;;4.95;;
10005;SDS011;5042;42.626;23.382;2022-08-19T13:24:41;3.40;;;3.10;;
10005;SDS011;5042;42.626;23.382;2022-08-19T13:27:09;3.50;;;3.20;;
10005;SDS011;5042;42.626;23.382;2022-08-19T13:29:43;3.20;;;3.00;;
10005;SDS011;5042;42.626;23.382;2022-08-19T13:32:28;3.17;;;2.90;;
10005;SDS011;5042;42.626;23.382;2022-08-19T13:35:13;3.03;;;2.83;;
10005;SDS011;5042;42.626;23.382;2022-08-19T13:37:40;3.35;;;3.08;;
10005;SDS011;5042;42.626;23.382;2022-08-19T13:40:08;2.67;;;2.47;;
10005;SDS011;5042;42.626;23.382;2022-08-19T13:42:39;2.92;;;2.65;;
10005;SDS011;5042;42.626;23.382;2022-08-19T13:45:08;3.22;;;2.80;;
10005;SDS011;5042;42.626;23.382;2022-08-19T13:47:35;2.80;;;2.50;;
10005;SDS011;5042;42.626;23.382;2022-08-19T13:50:09;3.17;;;2.83;;
10005;SDS011;5042;42.626;23.382;2022-08-19T13:52:37;2.67;;;2.47;;
10005;SDS011;5042;42.626;23.382;2022-08-19T13:55:04;3.60;;;3.30;;
10005;SDS011;5042;42.626;23.382;2022-08-19T13:57:32;4.95;;;3.97;;
10005;SDS011;5042;42.626;23.382;2022-08-19T13:59:59;4.18;;;3.28;;
10005;SDS011;5042;42.626;23.382;2022-08-19T14:02:28;3.30;;;3.05;;
10005;SDS011;5042;42.626;23.382;2022-08-19T14:04:55;3.58;;;2.80;;
10005;SDS011;5042;42.626;23.382;2022-08-19T14:07:22;3.35;;;3.08;;
10005;SDS011;5042;42.626;23.382;2022-08-19T14:09:49;2.80;;;2.60;;
10005;SDS011;5042;42.626;23.382;2022-08-19T14:12:18;2.40;;;2.20;;
10005;SDS011;5042;42.626;23.382;2022-08-19T14:14:45;2.95;;;2.70;;
10005;SDS011;5042;42.626;23.382;2022-08-19T14:17:12;3.17;;;2.88;;
10005;SDS011;5042;42.626;23.382;2022-08-19T14:19:40;2.72;;;2.53;;
10005;SDS011;5042;42.626;23.382;2022-08-19T14:22:08;5.82;;;2.60;;
10005;SDS011;5042;42.626;23.382;2022-08-19T14:24:36;4.10;;;2.67;;
10005;SDS011;5042;42.626;23.382;2022-08-19T14:27:03;3.00;;;2.80;;
10005;SDS011;5042;42.626;23.382;2022-08-19T14:29:31;2.88;;;2.50;;
10005;SDS011;5042;42.626;23.382;2022-08-19T14:31:57;3.67;;;2.90;;
10005;SDS011;5042;42.626;23.382;2022-08-19T14:34:25;3.25;;;3.03;;
10005;SDS011;5042;42.626;23.382;2022-08-19T14:36:53;3.60;;;3.30;;
10005;SDS011;5042;42.626;23.382;2022-08-19T14:39:20;3.05;;;2.80;;
10005;SDS011;5042;42.626;23.382;2022-08-19T14:41:47;5.50;;;2.90;;
10005;SDS011;5042;42.626;23.382;2022-08-19T14:44:14;4.18;;;3.00;;
10005;SDS011;5042;42.626;23.382;2022-08-19T14:46:41;4.43;;;3.22;;
10005;SDS011;5042;42.626;23.382;2022-08-19T14:49:09;3.45;;;3.15;;
10005;SDS011;5042;42.626;23.382;2022-08-19T14:51:36;3.47;;;3.17;;
10005;SDS011;5042;42.626;23.382;2022-08-19T14:54:04;3.00;;;2.80;;
10005;SDS011;5042;42.626;23.382;2022-08-19T14:56:32;3.05;;;2.85;;
10005;SDS011;5042;42.626;23.382;2022-08-19T14:58:59;3.38;;;3.08;;